Time;durP1;ratioP1;P1;durP2;ratioP2;P2;SDS_P1;SDS_P2;PMS_P1;PMS_P2;Temp;Humidity;BMP_temperature;BMP_pressure;BME280_temperature;BME280_humidity;BME280_pressure;Samples;Min_cycle;Max_cycle;Signal;HPM_P1;HPM_P2
2021/05/14 00:01:34;;;;;;;4.60;4.35;;;;;;;20.04;56.17;100479.75;4984459;28;20046;-50
2021/05/14 00:03:59;;;;;;;4.82;4.45;;;;;;;20.04;56.17;100485.13;4983800;28;20038;-50
2021/05/14 00:06:24;;;;;;;4.35;4.15;;;;;;;20.04;56.49;100485.91;4984361;28;20052;-53
2021/05/14 00:08:50;;;;;;;4.50;4.15;;;;;;;20.03;56.20;100481.66;4984893;28;20046;-49
2021/05/14 00:11:15;;;;;;;4.55;4.30;;;;;;;20.03;55.81;100480.88;4984310;28;20042;-51
2021/05/14 00:13:40;;;;;;;4.07;3.85;;;;;;;20.03;56.25;100473.56;4984142;28;20058;-51
2021/05/14 00:16:07;;;;;;;4.63;4.15;;;;;;;20.03;56.35;100470.06;4983707;28;20114;-50
2021/05/14 00:18:33;;;;;;;4.70;4.50;;;;;;;20.02;56.45;100468.53;4984090;28;20125;-50
2021/05/14 00:20:58;;;;;;;4.55;4.25;;;;;;;20.02;56.34;100463.94;4967262;28;20223;-53
2021/05/14 00:23:24;;;;;;;4.93;4.30;;;;;;;20.01;56.42;100456.16;4983856;28;20038;-52
2021/05/14 00:25:49;;;;;;;4.68;4.38;;;;;;;19.99;56.14;100464.63;4966064;28;20042;-51
2021/05/14 00:28:14;;;;;;;4.18;3.88;;;;;;;19.99;56.09;100467.31;4983751;28;20051;-51
2021/05/14 00:30:40;;;;;;;4.82;4.25;;;;;;;20.00;56.38;100468.88;4983710;28;20031;-52
2021/05/14 00:33:05;;;;;;;4.90;4.50;;;;;;;19.98;56.38;100465.75;4966474;28;20400;-52
2021/05/14 00:35:30;;;;;;;4.50;4.25;;;;;;;19.99;56.41;100464.63;4966805;28;20050;-52
2021/05/14 00:37:56;;;;;;;6.00;4.47;;;;;;;19.98;56.37;100464.97;4983210;28;20093;-50
2021/05/14 00:40:21;;;;;;;4.35;4.05;;;;;;;19.97;56.23;100456.09;4966618;28;20046;-48
2021/05/14 00:42:47;;;;;;;4.65;4.28;;;;;;;19.97;56.20;100463.41;4983711;28;20228;-51
2021/05/14 00:45:12;;;;;;;4.43;4.13;;;;;;;19.97;56.32;100458.03;4966473;28;20500;-49
2021/05/14 00:47:38;;;;;;;4.93;4.63;;;;;;;19.96;56.52;100456.44;4984067;28;20078;-52
2021/05/14 00:50:04;;;;;;;4.70;4.40;;;;;;;19.97;56.38;100463.41;4986123;28;20034;-49
2021/05/14 00:52:29;;;;;;;4.65;4.32;;;;;;;19.95;56.41;100455.66;4969504;28;20101;-51
2021/05/14 00:54:55;;;;;;;4.57;4.32;;;;;;;19.97;56.40;100463.41;4987283;28;20042;-49
2021/05/14 00:57:20;;;;;;;4.90;4.60;;;;;;;19.96;56.45;100467.25;4987915;28;20597;-50
2021/05/14 00:59:47;;;;;;;4.72;4.43;;;;;;;19.95;56.45;100461.06;4953654;28;20038;-53
2021/05/14 01:02:12;;;;;;;5.00;4.70;;;;;;;19.94;56.52;100458.72;4969322;28;20126;-51
2021/05/14 01:04:38;;;;;;;5.45;5.15;;;;;;;19.95;56.35;100457.56;4969812;28;20129;-52
2021/05/14 01:07:03;;;;;;;5.35;4.95;;;;;;;19.95;56.15;100457.56;4986977;28;20034;-51
2021/05/14 01:09:29;;;;;;;5.93;5.28;;;;;;;19.93;56.53;100457.94;4987233;28;20038;-50
2021/05/14 01:11:54;;;;;;;4.65;4.25;;;;;;;19.93;56.65;100457.94;4986793;28;20492;-52
2021/05/14 01:14:19;;;;;;;4.97;4.68;;;;;;;19.93;56.47;100454.47;4987056;28;20045;-51
2021/05/14 01:16:45;;;;;;;4.85;4.60;;;;;;;19.93;56.63;100451.75;4969351;28;20039;-52
2021/05/14 01:19:10;;;;;;;4.75;4.38;;;;;;;19.94;56.55;100451.41;4986355;28;20411;-51
2021/05/14 01:21:35;;;;;;;5.13;4.82;;;;;;;19.93;56.60;100451.75;4987171;28;20058;-52
2021/05/14 01:24:01;;;;;;;4.68;4.45;;;;;;;19.92;56.49;100450.19;4968500;28;20137;-53
2021/05/14 01:26:27;;;;;;;5.70;5.20;;;;;;;19.92;56.29;100452.88;5003754;28;20056;-52
2021/05/14 01:28:53;;;;;;;5.30;4.90;;;;;;;19.91;56.47;100452.13;5006783;28;20486;-52
2021/05/14 01:31:18;;;;;;;4.90;4.60;;;;;;;19.92;56.31;100455.59;5005902;28;20045;-52
2021/05/14 01:33:43;;;;;;;5.18;4.72;;;;;;;19.90;56.55;100452.47;4988931;28;20044;-52
2021/05/14 01:36:09;;;;;;;5.07;4.68;;;;;;;19.89;56.64;100459.00;5005575;28;20436;-52
2021/05/14 01:38:34;;;;;;;5.05;4.70;;;;;;;19.89;56.45;100451.69;4988085;28;20065;-53
2021/05/14 01:41:00;;;;;;;4.82;4.53;;;;;;;19.89;56.39;100451.69;5006593;28;20125;-52
2021/05/14 01:43:25;;;;;;;4.78;4.38;;;;;;;19.89;56.31;100450.91;4988038;28;20125;-52
2021/05/14 01:45:51;;;;;;;4.60;4.28;;;;;;;19.88;56.39;100450.13;4988509;28;20056;-53
2021/05/14 01:48:16;;;;;;;5.50;5.03;;;;;;;19.87;56.33;100459.34;4997318;28;20050;-53
2021/05/14 01:50:42;;;;;;;5.82;5.30;;;;;;;19.86;56.55;100454.31;4968618;28;20088;-53
2021/05/14 01:53:07;;;;;;;5.60;5.20;;;;;;;19.88;56.59;100452.03;4985338;28;20382;-52
2021/05/14 01:55:35;;;;;;;5.63;5.22;;;;;;;19.87;56.51;100445.06;4985548;28;20072;-52
2021/05/14 01:58:01;;;;;;;5.45;4.95;;;;;;;19.87;56.58;100445.06;4985329;28;20034;-49
2021/05/14 02:00:26;;;;;;;6.00;5.47;;;;;;;19.87;56.59;100450.47;4984379;28;20042;-47
2021/05/14 02:02:52;;;;;;;5.47;4.95;;;;;;;19.87;56.44;100451.25;4986026;28;20042;-48
2021/05/14 02:05:17;;;;;;;5.18;4.85;;;;;;;19.85;56.62;100450.84;4985547;28;20046;-51
2021/05/14 02:07:42;;;;;;;6.18;5.68;;;;;;;19.85;56.37;100442.75;4984835;28;20034;-52
2021/05/14 02:10:09;;;;;;;5.97;5.28;;;;;;;19.85;56.51;100450.84;4985523;28;20569;-47
2021/05/14 02:12:34;;;;;;;6.47;6.03;;;;;;;19.85;56.70;100447.34;4985460;28;20042;-52
2021/05/14 02:14:59;;;;;;;5.78;5.28;;;;;;;19.83;56.54;100455.81;4986331;28;20092;-52
2021/05/14 02:17:25;;;;;;;5.65;5.28;;;;;;;19.83;57.23;100449.63;4986079;28;20038;-51
2021/05/14 02:19:50;;;;;;;6.18;5.65;;;;;;;19.82;56.37;100451.53;4985681;28;20527;-50
2021/05/14 02:22:15;;;;;;;5.72;5.32;;;;;;;19.81;56.61;100454.59;4967810;28;20034;-54
2021/05/14 02:24:41;;;;;;;5.63;5.22;;;;;;;19.81;56.72;100449.97;4968574;28;20606;-50
2021/05/14 02:27:06;;;;;;;5.78;5.30;;;;;;;19.80;56.50;100445.72;4959489;28;20101;-53
2021/05/14 02:29:34;;;;;;;5.90;5.50;;;;;;;19.81;56.69;100449.22;4966209;28;20030;-51
2021/05/14 02:32:00;;;;;;;6.20;5.60;;;;;;;19.81;56.79;100451.91;4964930;28;20034;-54
2021/05/14 02:34:26;;;;;;;6.22;5.72;;;;;;;19.81;56.52;100447.25;4991382;28;20049;-50
2021/05/14 02:36:51;;;;;;;6.25;5.85;;;;;;;19.80;56.59;100439.53;5023545;28;20049;-52
2021/05/14 02:39:17;;;;;;;6.80;5.88;;;;;;;19.80;56.26;100440.31;5009022;28;20042;-53
2021/05/14 02:41:42;;;;;;;6.45;5.85;;;;;;;19.80;56.59;100447.63;5003590;28;20512;-52
2021/05/14 02:44:08;;;;;;;6.10;5.60;;;;;;;19.78;56.56;100449.91;5003517;28;20104;-53
2021/05/14 02:46:33;;;;;;;6.07;5.68;;;;;;;19.78;56.54;100450.66;5005075;28;20048;-53
2021/05/14 02:48:59;;;;;;;6.72;6.22;;;;;;;19.78;56.57;100447.22;5004601;28;20045;-53
2021/05/14 02:51:24;;;;;;;5.90;5.50;;;;;;;19.76;56.50;100442.16;4988009;28;20042;-53
2021/05/14 02:53:50;;;;;;;6.45;5.85;;;;;;;19.77;56.35;100448.34;5002590;28;20522;-53
2021/05/14 02:56:15;;;;;;;6.57;5.97;;;;;;;19.78;56.29;100447.97;5002939;28;20042;-52
2021/05/14 02:58:40;;;;;;;5.85;5.45;;;;;;;19.78;56.47;100447.22;5001676;28;20042;-53
2021/05/14 03:01:06;;;;;;;6.32;5.93;;;;;;;19.75;56.39;100446.00;5003692;28;20040;-52
2021/05/14 03:03:31;;;;;;;6.60;6.15;;;;;;;19.75;56.40;100446.00;5004475;28;20038;-53
2021/05/14 03:05:56;;;;;;;6.57;6.10;;;;;;;19.76;56.43;100444.84;5004990;28;20034;-50
2021/05/14 03:08:22;;;;;;;6.82;6.32;;;;;;;19.77;56.37;100448.34;5003672;28;20052;-53
2021/05/14 03:10:47;;;;;;;6.88;6.28;;;;;;;19.75;56.33;100443.31;5005414;28;20042;-50
2021/05/14 03:13:12;;;;;;;6.88;6.45;;;;;;;19.74;56.49;100440.94;5003214;28;20553;-52
2021/05/14 03:15:38;;;;;;;6.10;5.70;;;;;;;19.74;56.63;100449.81;5004253;28;20042;-54
2021/05/14 03:18:03;;;;;;;7.03;6.47;;;;;;;19.74;56.48;100446.34;5003979;28;20030;-52
2021/05/14 03:20:29;;;;;;;6.82;6.32;;;;;;;19.73;56.30;100444.75;5004247;28;20574;-52
2021/05/14 03:22:54;;;;;;;6.80;6.30;;;;;;;19.73;56.48;100448.25;5004422;28;20749;-51
2021/05/14 03:25:19;;;;;;;6.97;6.50;;;;;;;19.74;56.65;100446.34;5004551;28;20103;-52
2021/05/14 03:27:45;;;;;;;6.28;5.85;;;;;;;19.72;56.46;100446.69;5002543;28;20492;-52
2021/05/14 03:30:11;;;;;;;7.22;6.63;;;;;;;19.73;56.43;100447.47;5004368;28;20034;-53
2021/05/14 03:32:36;;;;;;;6.95;6.45;;;;;;;19.73;56.41;100444.75;5002309;28;20062;-53
2021/05/14 03:35:03;;;;;;;6.10;5.70;;;;;;;19.73;56.55;100442.84;5013007;28;20407;-53
2021/05/14 03:37:28;;;;;;;6.38;5.95;;;;;;;19.72;56.44;100440.53;5006501;28;20095;-53
2021/05/14 03:39:56;;;;;;;6.85;6.45;;;;;;;19.71;56.38;100441.66;5023260;28;20049;-51
2021/05/14 03:42:24;;;;;;;6.63;6.13;;;;;;;19.72;56.15;100445.91;5023161;28;20057;-53
2021/05/14 03:44:50;;;;;;;7.07;6.50;;;;;;;19.72;56.41;100449.41;5024033;28;20040;-52
2021/05/14 03:47:17;;;;;;;6.82;6.22;;;;;;;19.71;56.40;100445.13;5023647;28;20052;-51
2021/05/14 03:49:43;;;;;;;7.38;6.78;;;;;;;19.71;56.32;100447.81;5005971;28;20026;-53
2021/05/14 03:52:12;;;;;;;6.32;5.82;;;;;;;19.72;56.11;100449.41;5023328;28;20048;-51
2021/05/14 03:54:38;;;;;;;6.55;6.05;;;;;;;19.70;56.21;100448.19;5023660;28;20569;-49
2021/05/14 03:57:03;;;;;;;5.90;5.50;;;;;;;19.70;55.85;100445.50;5023615;28;20034;-53
2021/05/14 03:59:29;;;;;;;6.43;5.93;;;;;;;19.71;56.11;100452.44;5023617;28;20033;-51
2021/05/14 04:01:54;;;;;;;6.70;6.10;;;;;;;19.72;55.94;100451.31;5023662;28;20045;-48
2021/05/14 04:04:21;;;;;;;7.40;6.80;;;;;;;19.69;56.12;100446.63;5023337;28;20098;-51
2021/05/14 04:06:47;;;;;;;6.75;6.25;;;;;;;19.69;56.11;100452.78;5023061;28;20104;-52
2021/05/14 04:09:12;;;;;;;6.13;5.72;;;;;;;19.70;56.06;100450.88;5023284;28;20037;-51
2021/05/14 04:16:47;;;;;;;8.23;7.50;;;;;;;19.65;56.13;100453.84;5023278;28;20135;-52
2021/05/14 04:19:12;;;;;;;7.50;6.90;;;;;;;19.64;55.74;100452.28;5022962;28;20423;-47
2021/05/14 04:21:38;;;;;;;7.60;7.00;;;;;;;19.66;55.88;100455.41;5023470;28;20046;-47
2021/05/14 04:24:05;;;;;;;7.50;6.90;;;;;;;19.64;55.96;100452.28;5023373;28;20041;-53
2021/05/14 04:26:30;;;;;;;8.70;7.90;;;;;;;19.64;55.90;100450.38;5027847;28;20053;-52
2021/05/14 04:28:55;;;;;;;7.72;7.13;;;;;;;19.64;55.89;100463.06;5026737;28;20121;-53
2021/05/14 04:31:21;;;;;;;8.23;7.43;;;;;;;19.63;55.69;100454.19;5027334;28;20085;-53
2021/05/14 04:33:46;;;;;;;8.50;7.90;;;;;;;19.63;55.89;100461.50;5027554;28;20051;-52
2021/05/14 04:36:12;;;;;;;7.95;7.35;;;;;;;19.64;55.77;100461.16;5008162;28;20068;-50
2021/05/14 04:38:37;;;;;;;6.85;6.35;;;;;;;19.64;55.69;100454.97;5026885;28;20046;-51
2021/05/14 04:41:02;;;;;;;7.20;6.63;;;;;;;19.63;55.50;100458.78;5026844;28;20415;-51
2021/05/14 04:43:28;;;;;;;8.35;7.65;;;;;;;19.62;55.52;100457.25;5009508;28;20033;-53
2021/05/14 04:45:53;;;;;;;8.52;7.72;;;;;;;19.61;55.60;100466.47;5026644;28;20056;-52
2021/05/14 04:48:18;;;;;;;7.85;7.25;;;;;;;19.62;55.59;100463.41;5026864;28;20041;-54
2021/05/14 04:50:44;;;;;;;7.70;7.10;;;;;;;19.62;55.49;100474.19;5009483;28;20104;-51
2021/05/14 04:53:11;;;;;;;8.68;8.18;;;;;;;19.62;55.57;100473.44;5026527;28;20033;-52
2021/05/14 04:55:36;;;;;;;7.55;7.05;;;;;;;19.62;55.40;100476.13;5027078;28;20041;-51
2021/05/14 04:58:02;;;;;;;7.60;7.00;;;;;;;19.61;55.30;100472.63;5026081;28;20048;-50
2021/05/14 05:00:27;;;;;;;8.85;7.95;;;;;;;19.62;55.36;100468.78;5022992;28;20776;-53
2021/05/14 05:02:53;;;;;;;7.65;7.05;;;;;;;19.62;55.22;100476.13;5025337;28;20114;-54
2021/05/14 05:05:19;;;;;;;7.95;7.22;;;;;;;19.64;56.00;100480.03;5025313;28;20083;-53
2021/05/14 05:07:44;;;;;;;11.10;6.85;;;;;;;19.65;55.63;100478.09;5008133;28;20041;-53
2021/05/14 05:10:10;;;;;;;8.02;7.30;;;;;;;19.60;55.61;100487.25;4973751;28;20395;-53
2021/05/14 05:12:35;;;;;;;8.35;7.50;;;;;;;19.60;55.51;100481.84;5025017;28;20184;-53
2021/05/14 05:15:01;;;;;;;7.63;6.93;;;;;;;19.59;55.51;100482.22;5025998;28;20033;-54
2021/05/14 05:17:26;;;;;;;7.18;6.68;;;;;;;19.61;55.54;100490.72;5007366;28;20215;-53
2021/05/14 05:19:52;;;;;;;8.70;6.38;;;;;;;19.58;55.41;100484.13;5025635;28;20032;-52
2021/05/14 05:22:17;;;;;;;7.85;7.35;;;;;;;19.58;55.33;100486.03;5024551;28;20575;-53
2021/05/14 05:24:42;;;;;;;7.35;6.75;;;;;;;19.56;55.31;100494.47;5026118;28;20044;-54
2021/05/14 05:27:08;;;;;;;8.38;7.60;;;;;;;19.56;55.41;100493.69;5008008;28;20041;-53
2021/05/14 05:29:37;;;;;;;8.43;7.72;;;;;;;19.54;55.21;100496.72;4990077;28;20056;-53
2021/05/14 05:32:02;;;;;;;8.20;7.70;;;;;;;19.55;55.16;100494.81;5007961;28;20038;-53
2021/05/14 05:34:28;;;;;;;8.43;7.72;;;;;;;19.56;55.12;100494.47;5025078;28;20060;-54
2021/05/14 05:36:54;;;;;;;7.95;7.22;;;;;;;19.56;55.02;100493.69;5024156;28;20684;-53
2021/05/14 05:39:19;;;;;;;8.55;7.88;;;;;;;19.55;55.06;100489.41;5007892;28;20038;-52
2021/05/14 05:41:45;;;;;;;8.63;7.70;;;;;;;19.55;55.12;100489.41;5007628;28;20054;-50
2021/05/14 05:44:10;;;;;;;8.15;7.45;;;;;;;19.55;54.99;100495.59;5006676;28;20088;-53
2021/05/14 05:46:35;;;;;;;8.32;7.57;;;;;;;19.54;55.04;100494.03;5025705;28;20049;-53
2021/05/14 05:49:01;;;;;;;9.48;8.13;;;;;;;19.53;55.00;100495.94;5007498;28;20071;-53
2021/05/14 05:51:26;;;;;;;9.02;8.32;;;;;;;19.53;54.91;100495.19;5006770;28;20261;-52
2021/05/14 05:53:52;;;;;;;9.50;8.75;;;;;;;19.52;54.79;100499.00;5006796;28;20045;-53
2021/05/14 05:56:17;;;;;;;9.88;9.02;;;;;;;19.51;54.90;100503.59;5024010;28;20041;-54
2021/05/14 05:58:42;;;;;;;9.52;8.48;;;;;;;19.50;55.01;100493.97;5005752;28;20513;-53
2021/05/14 06:01:08;;;;;;;9.35;8.27;;;;;;;19.50;54.82;100502.03;4990679;28;20041;-53
2021/05/14 06:03:33;;;;;;;9.82;8.93;;;;;;;19.51;54.97;100505.50;5024847;28;20045;-52
2021/05/14 06:05:58;;;;;;;9.43;8.63;;;;;;;19.51;54.73;100503.59;5007045;28;20037;-53
2021/05/14 06:08:24;;;;;;;10.02;9.13;;;;;;;19.50;54.80;100502.03;5023480;28;20040;-54
2021/05/14 06:10:51;;;;;;;9.55;8.77;;;;;;;19.50;54.75;100503.94;5000546;28;20037;-55
2021/05/14 06:13:17;;;;;;;9.77;8.98;;;;;;;19.49;54.76;100503.16;5024445;28;20173;-55
2021/05/14 06:15:42;;;;;;;8.38;7.78;;;;;;;19.50;54.89;100512.81;5024298;28;20124;-52
2021/05/14 06:18:15;;;;;;;9.10;7.85;;;;;;;19.49;54.78;100513.94;5003593;28;20553;-54
2021/05/14 06:20:43;;;;;;;9.70;8.70;;;;;;;19.50;54.75;100517.44;5007005;28;20038;-54
2021/05/14 06:23:08;;;;;;;11.05;8.52;;;;;;;19.51;54.75;100518.97;5021062;28;20060;-54
2021/05/14 06:25:34;;;;;;;9.48;8.60;;;;;;;19.50;54.71;100518.22;5023703;28;20041;-57
2021/05/14 06:28:00;;;;;;;9.48;8.63;;;;;;;19.49;54.73;100523.94;5020237;28;20096;-53
2021/05/14 06:30:25;;;;;;;9.73;8.73;;;;;;;19.46;54.88;100525.41;5022983;28;20041;-54
2021/05/14 06:32:50;;;;;;;9.38;8.68;;;;;;;19.47;54.66;100521.59;5005765;28;20564;-55
2021/05/14 06:35:16;;;;;;;10.05;9.13;;;;;;;19.47;54.74;100521.59;5005193;28;20053;-54
2021/05/14 06:37:43;;;;;;;10.73;7.88;;;;;;;19.49;54.60;100519.34;5022818;28;20128;-54
2021/05/14 06:40:09;;;;;;;9.23;8.35;;;;;;;19.48;54.47;100522.38;5021466;28;20050;-54
2021/05/14 06:42:34;;;;;;;9.07;8.27;;;;;;;19.49;54.59;100527.41;5022748;28;20041;-54
2021/05/14 06:45:00;;;;;;;8.88;8.18;;;;;;;19.50;54.63;100530.91;5005427;28;20037;-54
2021/05/14 06:47:25;;;;;;;9.40;7.82;;;;;;;19.50;54.59;100526.31;5022063;28;20730;-52
2021/05/14 06:49:50;;;;;;;10.00;9.10;;;;;;;19.52;54.41;100536.72;5004814;28;20087;-53
2021/05/14 06:52:16;;;;;;;10.55;7.55;;;;;;;19.50;54.64;100542.47;5022313;28;20033;-53
2021/05/14 06:54:41;;;;;;;14.82;8.77;;;;;;;19.50;54.39;100542.47;5022603;28;20443;-55
2021/05/14 06:57:07;;;;;;;7.90;7.13;;;;;;;19.53;54.58;100546.38;5022654;28;20038;-55
2021/05/14 06:59:32;;;;;;;8.05;7.40;;;;;;;19.52;54.34;100540.19;5003224;28;20045;-54
2021/05/14 07:01:57;;;;;;;8.95;8.15;;;;;;;19.51;54.68;100546.72;5004996;28;20045;-54
2021/05/14 07:04:23;;;;;;;9.63;8.75;;;;;;;19.54;54.12;100542.53;5021504;28;20430;-55
2021/05/14 07:06:48;;;;;;;10.60;8.35;;;;;;;19.50;54.26;100542.47;5023093;28;20037;-55
2021/05/14 07:09:13;;;;;;;9.43;8.52;;;;;;;19.50;54.24;100545.16;4986913;28;20037;-53
2021/05/14 07:11:39;;;;;;;10.13;9.15;;;;;;;19.50;54.33;100545.16;5021589;28;20491;-54
2021/05/14 07:14:04;;;;;;;10.20;9.30;;;;;;;19.50;54.10;100542.47;4987456;28;20803;-55
2021/05/14 07:16:30;;;;;;;12.48;9.02;;;;;;;19.51;54.25;100556.72;5005782;28;20045;-52
2021/05/14 07:18:55;;;;;;;13.05;9.68;;;;;;;19.50;54.37;100549.78;5024058;28;20044;-54
2021/05/14 07:21:21;;;;;;;10.43;9.50;;;;;;;19.51;54.16;100544.03;5003623;28;20046;-54
2021/05/14 07:23:47;;;;;;;10.10;8.98;;;;;;;19.52;54.10;100545.59;5006415;28;20052;-51
2021/05/14 07:26:12;;;;;;;9.50;8.70;;;;;;;19.52;54.08;100550.19;5007542;28;20465;-55
2021/05/14 07:28:37;;;;;;;9.50;8.70;;;;;;;19.54;53.96;100561.41;5023752;28;20450;-56
2021/05/14 07:31:03;;;;;;;9.25;8.35;;;;;;;19.55;54.12;100562.19;5024264;28;20040;-54
2021/05/14 07:33:28;;;;;;;10.80;9.75;;;;;;;19.54;54.04;100564.09;5022537;28;20092;-56
2021/05/14 07:35:54;;;;;;;11.23;9.95;;;;;;;19.53;54.01;100566.00;5022900;28;20046;-55
2021/05/14 07:38:20;;;;;;;9.95;9.15;;;;;;;19.56;54.05;100566.47;5005207;28;20044;-55
2021/05/14 07:40:45;;;;;;;9.93;9.13;;;;;;;19.56;54.05;100569.94;5024519;28;20071;-54
2021/05/14 07:43:10;;;;;;;11.23;9.90;;;;;;;19.56;54.33;100571.84;5005801;28;20056;-54
2021/05/14 07:45:36;;;;;;;10.90;9.90;;;;;;;19.53;54.67;100567.94;5022833;28;20124;-55
2021/05/14 07:48:03;;;;;;;12.23;10.82;;;;;;;19.52;54.78;100577.16;5022906;28;20036;-50
2021/05/14 07:50:29;;;;;;;11.45;10.32;;;;;;;19.55;54.36;100578.38;5003876;28;20495;-53
2021/05/14 07:52:54;;;;;;;13.27;10.52;;;;;;;19.57;54.43;100578.78;5024207;28;20061;-55
2021/05/14 07:55:20;;;;;;;12.93;10.90;;;;;;;19.57;54.80;100576.09;5004569;28;20055;-53
2021/05/14 07:57:45;;;;;;;13.68;10.85;;;;;;;19.55;55.45;100581.06;5021039;28;20060;-56
2021/05/14 08:00:11;;;;;;;12.63;11.25;;;;;;;19.53;55.01;100576.03;5025802;28;20053;-54
2021/05/14 08:02:36;;;;;;;16.08;11.00;;;;;;;19.54;54.78;100574.88;5003886;28;20440;-52
2021/05/14 08:05:02;;;;;;;12.05;10.85;;;;;;;19.56;54.81;100577.25;5011489;28;20071;-56
2021/05/14 08:07:27;;;;;;;12.35;11.18;;;;;;;19.53;54.47;100576.03;5028644;28;20049;-54
2021/05/14 08:09:53;;;;;;;13.73;12.40;;;;;;;19.52;54.44;100574.44;5009318;28;20087;-54
2021/05/14 08:12:18;;;;;;;12.75;11.45;;;;;;;19.50;54.28;100576.72;5009048;28;20192;-54
2021/05/14 08:14:44;;;;;;;12.23;11.02;;;;;;;19.51;53.99;100573.66;5028638;28;20040;-54
2021/05/14 08:17:10;;;;;;;13.10;11.82;;;;;;;19.54;54.08;100574.88;5009399;28;20480;-56
2021/05/14 08:19:35;;;;;;;11.60;9.95;;;;;;;19.53;53.88;100581.41;5027037;28;20078;-56
2021/05/14 08:22:00;;;;;;;14.48;11.95;;;;;;;19.53;54.01;100582.19;5026753;28;20500;-55
2021/05/14 08:24:26;;;;;;;14.35;12.95;;;;;;;19.50;53.92;100588.28;5025751;28;20045;-55
2021/05/14 08:26:51;;;;;;;12.82;11.57;;;;;;;19.50;54.15;100587.50;5025854;28;20068;-55
2021/05/14 08:29:17;;;;;;;12.55;11.38;;;;;;;19.51;54.49;100591.75;5027650;28;20541;-55
2021/05/14 08:31:42;;;;;;;14.52;11.82;;;;;;;19.51;54.25;100597.91;5027922;28;20048;-57
2021/05/14 08:34:08;;;;;;;11.95;10.85;;;;;;;19.51;54.15;100602.53;5026830;28;20042;-54
2021/05/14 08:36:34;;;;;;;12.70;11.50;;;;;;;19.50;54.31;100599.06;5029058;28;20131;-55
2021/05/14 08:38:59;;;;;;;12.13;10.82;;;;;;;19.49;54.17;100599.41;5013205;28;20040;-55
2021/05/14 08:41:25;;;;;;;13.93;11.63;;;;;;;19.51;54.20;100600.63;5028078;28;20521;-55
2021/05/14 08:43:51;;;;;;;13.02;10.82;;;;;;;19.51;54.17;100594.44;5027352;28;20045;-55
2021/05/14 08:46:18;;;;;;;11.48;10.40;;;;;;;19.50;54.06;100588.28;5008968;28;20041;-57
2021/05/14 08:48:43;;;;;;;11.07;9.98;;;;;;;19.53;54.13;100597.59;5018568;28;20041;-56
2021/05/14 08:51:10;;;;;;;11.02;9.93;;;;;;;19.55;54.05;100602.63;5007555;28;20038;-56
2021/05/14 08:53:36;;;;;;;10.38;9.48;;;;;;;19.56;54.09;100610.38;5007391;28;20041;-56
2021/05/14 08:56:01;;;;;;;11.07;9.98;;;;;;;19.56;54.05;100610.38;5026284;28;20056;-53
2021/05/14 08:58:27;;;;;;;10.27;9.27;;;;;;;19.57;54.07;100606.53;5023985;28;20409;-55
2021/05/14 09:00:52;;;;;;;10.23;9.32;;;;;;;19.57;53.97;100609.22;5024680;28;20132;-56
2021/05/14 09:03:17;;;;;;;9.75;9.05;;;;;;;19.56;53.93;100606.91;5025191;28;20033;-56
2021/05/14 09:05:45;;;;;;;9.80;8.90;;;;;;;19.56;53.92;100612.28;5014702;28;20404;-57
2021/05/14 09:08:10;;;;;;;9.02;8.27;;;;;;;19.55;53.91;100608.81;4990431;28;20042;-56
2021/05/14 09:10:36;;;;;;;9.35;8.65;;;;;;;19.56;53.85;100613.06;5023142;28;20047;-55
2021/05/14 09:13:12;;;;;;;9.77;8.88;;;;;;;19.57;53.80;100616.53;5025069;28;20038;-55
2021/05/14 09:15:40;;;;;;;10.52;9.50;;;;;;;19.57;53.92;100619.22;5024188;28;20084;-56
2021/05/14 09:18:09;;;;;;;9.40;8.60;;;;;;;19.58;53.74;100624.28;5023282;28;20037;-51
2021/05/14 09:20:39;;;;;;;9.02;8.35;;;;;;;19.57;53.84;100624.63;4990930;28;20101;-53
2021/05/14 09:23:20;;;;;;;9.35;8.55;;;;;;;19.57;53.76;100628.09;5006954;28;20044;-57
2021/05/14 09:25:54;;;;;;;9.23;8.35;;;;;;;19.57;53.67;100628.09;5024425;28;20045;-56
2021/05/14 09:28:21;;;;;;;;;;;;;;;19.59;53.51;100635.84;5025083;28;20029;-56
2021/05/14 09:31:12;;;;;;;8.55;7.85;;;;;;;19.58;53.48;100626.19;5025714;28;19917;-56
2021/05/14 09:33:45;;;;;;;8.65;7.97;;;;;;;19.60;53.56;100630.09;5025377;28;20053;-56
2021/05/14 09:36:12;;;;;;;10.10;9.10;;;;;;;19.58;53.71;100631.59;5001946;28;20042;-54
2021/05/14 09:38:45;;;;;;;11.30;10.13;;;;;;;19.58;53.69;100634.28;4985324;28;20042;-56
2021/05/14 09:41:39;;;;;;;12.60;10.95;;;;;;;19.58;53.81;100635.06;4983991;28;20100;-55
2021/05/14 09:44:05;;;;;;;11.85;10.55;;;;;;;19.59;53.89;100635.84;4985665;28;20053;-58
2021/05/14 09:46:39;;;;;;;13.07;11.25;;;;;;;19.58;53.77;100628.88;4986041;28;20042;-56
2021/05/14 09:49:08;;;;;;;12.00;10.98;;;;;;;19.58;53.52;100626.97;4985778;28;20069;-56
2021/05/14 09:51:55;;;;;;;13.27;11.98;;;;;;;19.59;53.30;100633.91;4987166;28;20038;-57
2021/05/14 09:54:37;;;;;;;12.38;11.25;;;;;;;19.61;53.20;100628.19;4985431;28;20046;-57
2021/05/14 09:57:32;;;;;;;12.07;11.05;;;;;;;19.61;53.03;100626.28;4986589;28;20041;-57
2021/05/14 10:00:05;;;;;;;12.30;11.20;;;;;;;19.61;52.89;100623.59;4987226;28;20169;-56
2021/05/14 10:02:36;;;;;;;13.60;12.18;;;;;;;19.64;52.90;100627.50;4986446;28;20050;-57
2021/05/14 10:05:07;;;;;;;12.30;11.20;;;;;;;19.64;52.96;100631.00;4987317;28;20034;-56
2021/05/14 10:07:33;;;;;;;12.80;11.77;;;;;;;19.64;52.89;100627.50;4985879;28;20447;-56
2021/05/14 10:10:03;;;;;;;12.45;11.35;;;;;;;19.64;52.63;100630.19;4983904;28;20574;-56
2021/05/14 10:12:28;;;;;;;12.27;11.32;;;;;;;19.64;52.75;100627.50;4979938;28;20061;-57
2021/05/14 10:14:56;;;;;;;13.07;11.68;;;;;;;19.65;52.49;100629.84;4985090;28;20595;-57
2021/05/14 10:17:22;;;;;;;12.02;10.93;;;;;;;19.66;52.57;100626.03;4984621;28;20061;-57
2021/05/14 10:19:48;;;;;;;12.73;11.63;;;;;;;19.64;52.41;100624.81;4983437;28;20066;-57
2021/05/14 10:22:13;;;;;;;12.48;11.48;;;;;;;19.66;52.22;100636.03;4998279;28;20046;-58
2021/05/14 10:24:43;;;;;;;13.25;12.07;;;;;;;19.66;52.20;100627.94;4984917;28;20038;-57
2021/05/14 10:27:38;;;;;;;12.77;11.77;;;;;;;19.68;52.13;100621.06;4985315;28;20060;-57
2021/05/14 10:30:04;;;;;;;13.10;12.00;;;;;;;19.69;51.89;100616.47;4984421;28;20062;-55
2021/05/14 10:32:50;;;;;;;12.70;11.60;;;;;;;19.65;51.75;100616.38;4987159;28;20536;-62
2021/05/14 10:35:25;;;;;;;13.15;11.65;;;;;;;19.69;52.29;100619.16;5007475;28;20037;-58
2021/05/14 10:38:00;;;;;;;12.93;11.63;;;;;;;19.69;53.20;100619.94;5025371;28;20046;-57
2021/05/14 10:40:32;;;;;;;13.73;12.43;;;;;;;19.70;53.06;100618.03;5002155;28;20050;-59
2021/05/14 10:42:59;;;;;;;12.85;11.75;;;;;;;19.71;53.39;100616.88;5026190;28;20087;-57
2021/05/14 10:45:37;;;;;;;11.95;10.90;;;;;;;19.71;53.01;100612.28;5008292;28;20045;-59
2021/05/14 10:48:03;;;;;;;11.30;10.40;;;;;;;19.73;52.63;100611.91;5022134;28;20139;-55
2021/05/14 10:50:33;;;;;;;13.88;12.57;;;;;;;19.72;53.46;100605.78;5008130;28;20578;-56
2021/05/14 10:53:20;;;;;;;12.38;11.18;;;;;;;19.74;53.22;100606.19;5023981;28;20048;-58
2021/05/14 10:55:46;;;;;;;12.68;11.35;;;;;;;19.75;54.08;100607.00;5024908;28;20388;-56
2021/05/14 10:58:47;;;;;;;12.40;11.40;;;;;;;19.77;53.93;100605.50;5004101;28;20030;-58
2021/05/14 11:01:28;;;;;;;13.20;11.45;;;;;;;19.78;54.25;100607.06;5006272;28;20091;-59
2021/05/14 11:03:53;;;;;;;11.52;10.15;;;;;;;19.78;54.28;100617.84;5006989;28;20049;-58
2021/05/14 11:06:19;;;;;;;11.18;10.27;;;;;;;19.77;54.05;100610.13;5022938;28;20094;-57
2021/05/14 11:09:01;;;;;;;11.45;10.45;;;;;;;19.78;53.96;100606.28;5024068;28;20056;-57
2021/05/14 11:11:27;;;;;;;11.20;10.10;;;;;;;19.77;53.83;100613.59;5006813;28;20038;-57
2021/05/14 11:13:52;;;;;;;11.18;10.30;;;;;;;19.80;53.76;100614.81;5007748;28;20065;-57
2021/05/14 11:16:33;;;;;;;10.82;9.80;;;;;;;19.79;53.91;100613.22;5025220;28;20064;-57
2021/05/14 11:19:19;;;;;;;11.50;9.88;;;;;;;19.81;53.52;100608.31;5007257;28;20043;-57
2021/05/14 11:21:59;;;;;;;11.57;10.38;;;;;;;19.84;53.66;100610.28;5012937;28;20045;-56
2021/05/14 11:24:37;;;;;;;9.88;8.98;;;;;;;19.84;53.41;100610.28;5024085;28;20041;-56
2021/05/14 11:27:23;;;;;;;10.48;9.35;;;;;;;19.81;52.62;100613.69;5008005;28;20053;-58